Time;durP1;ratioP1;P1;durP2;ratioP2;P2;SDS_P1;SDS_P2;PMS_P1;PMS_P2;Temp;Humidity;BMP_temperature;BMP_pressure;BME280_temperature;BME280_humidity;BME280_pressure;Samples;Min_cycle;Max_cycle;Signal;HPM_P1;HPM_P2
2023/08/17 00:00:26;;;;;;;3.50;2.50;;;15.70;66.70;;;;;;5053211;28;20052;-77
2023/08/17 00:02:53;;;;;;;3.40;2.45;;;15.80;66.20;;;;;;5053336;28;20075;-79
2023/08/17 00:05:21;;;;;;;3.78;2.20;;;15.70;65.30;;;;;;5053305;28;20021;-79
2023/08/17 00:07:48;;;;;;;2.47;1.92;;;15.90;66.40;;;;;;5053315;28;20025;-78
2023/08/17 00:10:16;;;;;;;2.40;2.17;;;16.00;66.40;;;;;;5053457;28;20036;-80
2023/08/17 00:12:43;;;;;;;3.50;2.20;;;16.20;65.20;;;;;;5053575;28;20056;-79
2023/08/17 00:15:11;;;;;;;4.90;2.00;;;16.20;64.60;;;;;;5052167;28;20418;-80
2023/08/17 00:17:38;;;;;;;3.47;1.77;;;16.40;64.70;;;;;;5053139;28;20112;-78
2023/08/17 00:20:09;;;;;;;3.88;1.80;;;16.60;64.00;;;;;;5053132;28;20044;-78
2023/08/17 00:22:37;;;;;;;3.30;1.88;;;16.80;62.60;;;;;;5067934;28;20048;-79
2023/08/17 00:25:06;;;;;;;3.33;1.90;;;16.90;60.50;;;;;;5053328;28;20032;-79
2023/08/17 00:27:34;;;;;;;6.75;1.73;;;17.10;60.00;;;;;;5052200;28;20535;-79
2023/08/17 00:30:01;;;;;;;3.35;1.60;;;17.20;59.50;;;;;;5053014;28;20029;-79
2023/08/17 00:32:28;;;;;;;2.17;1.75;;;17.20;59.80;;;;;;5049853;28;20557;-78
2023/08/17 00:34:56;;;;;;;2.10;1.40;;;17.10;58.20;;;;;;5051087;28;20028;-77
2023/08/17 00:37:23;;;;;;;2.47;1.50;;;17.00;59.40;;;;;;5051024;28;20036;-79
2023/08/17 00:39:51;;;;;;;3.55;1.58;;;17.20;60.00;;;;;;5050974;28;20017;-78
2023/08/17 00:42:18;;;;;;;1.73;1.60;;;17.50;57.80;;;;;;5050784;28;20029;-78
2023/08/17 00:44:45;;;;;;;4.35;1.30;;;17.70;57.40;;;;;;5050738;28;20044;-78
2023/08/17 00:47:13;;;;;;;2.63;1.40;;;17.80;58.70;;;;;;5050857;28;20468;-79
2023/08/17 00:49:45;;;;;;;1.77;1.30;;;17.80;56.90;;;;;;5049385;28;20395;-79
2023/08/17 00:52:13;;;;;;;1.67;1.40;;;18.10;55.90;;;;;;5050939;28;20082;-77
2023/08/17 00:54:40;;;;;;;3.55;1.45;;;18.20;56.10;;;;;;5052199;28;20029;-78
2023/08/17 00:57:10;;;;;;;4.35;1.77;;;18.30;55.10;;;;;;5053142;28;20037;-77
2023/08/17 00:59:37;;;;;;;1.88;1.40;;;18.40;55.70;;;;;;5051887;28;20468;-77
2023/08/17 01:02:06;;;;;;;1.90;1.30;;;18.40;53.90;;;;;;5053016;28;20071;-78
2023/08/17 01:04:33;;;;;;;2.13;1.30;;;18.30;52.90;;;;;;5052720;28;20017;-77
2023/08/17 01:07:02;;;;;;;3.90;1.33;;;18.50;51.10;;;;;;5052972;28;20479;-78
2023/08/17 01:09:30;;;;;;;1.50;1.40;;;18.70;50.10;;;;;;5053304;28;20387;-77
2023/08/17 01:12:23;;;;;;;2.22;1.27;;;18.80;50.40;;;;;;5056176;28;20083;-78
2023/08/17 01:15:14;;;;;;;2.15;1.27;;;18.70;50.10;;;;;;5056977;28;20025;-78
2023/08/17 01:18:00;;;;;;;3.20;1.10;;;18.50;48.10;;;;;;5056906;28;20037;-78
2023/08/17 01:20:27;;;;;;;;;;;18.30;47.90;;;;;;5057173;28;20068;-79
2023/08/17 01:22:58;;;;;;;5.95;1.20;;;18.30;49.30;;;;;;5056729;28;20396;-79
2023/08/17 01:25:25;;;;;;;2.47;1.30;;;18.50;47.60;;;;;;5056855;28;20419;-80
2023/08/17 01:27:53;;;;;;;2.88;1.30;;;18.70;48.00;;;;;;5056491;28;20033;-78
2023/08/17 01:30:20;;;;;;;1.38;1.00;;;18.80;48.90;;;;;;5056327;28;20021;-81
2023/08/17 01:33:07;;;;;;;1.20;1.10;;;18.90;46.90;;;;;;5056622;28;20032;-79
2023/08/17 01:35:50;;;;;;;1.88;0.93;;;19.00;45.80;;;;;;5056556;28;20142;-79
2023/08/17 01:38:20;;;;;;;3.22;1.10;;;18.90;47.10;;;;;;5056282;28;20375;-78
2023/08/17 01:40:50;;;;;;;0.80;0.80;;;18.80;46.60;;;;;;5056231;28;20422;-80
2023/08/17 01:43:18;;;;;;;1.00;0.88;;;18.90;46.20;;;;;;5055223;28;20420;-79
2023/08/17 01:45:46;;;;;;;1.38;1.05;;;18.90;45.90;;;;;;5056078;28;20079;-79
2023/08/17 01:48:13;;;;;;;1.88;1.10;;;18.90;45.00;;;;;;5056155;28;20021;-80
2023/08/17 01:50:40;;;;;;;1.20;1.00;;;18.80;45.00;;;;;;5055864;28;20108;-80
2023/08/17 01:53:09;;;;;;;1.50;1.15;;;19.00;43.70;;;;;;5056099;28;20116;-79
2023/08/17 01:55:37;;;;;;;1.20;1.10;;;19.10;42.80;;;;;;5056095;28;20479;-79
2023/08/17 01:58:07;;;;;;;2.25;0.88;;;19.10;44.10;;;;;;5056079;28;20025;-80
2023/08/17 02:00:34;;;;;;;1.85;0.88;;;19.00;42.20;;;;;;5055567;28;20096;-79
2023/08/17 02:03:02;;;;;;;1.88;1.20;;;18.80;42.10;;;;;;5054520;28;20025;-80
2023/08/17 02:05:29;;;;;;;1.27;0.98;;;18.70;42.60;;;;;;5055785;28;20017;-79
2023/08/17 02:07:56;;;;;;;0.80;0.80;;;18.60;44.10;;;;;;5055258;28;20499;-80
2023/08/17 02:10:24;;;;;;;2.00;0.90;;;18.50;44.10;;;;;;5052387;28;20429;-79
2023/08/17 02:12:51;;;;;;;0.82;0.77;;;18.40;41.80;;;;;;5054949;28;20029;-79
2023/08/17 02:15:18;;;;;;;0.70;0.70;;;18.50;42.20;;;;;;5055359;28;20456;-81
2023/08/17 02:17:46;;;;;;;0.70;0.60;;;18.60;43.50;;;;;;5054815;28;20025;-79
2023/08/17 02:20:14;;;;;;;5.97;1.02;;;18.70;42.80;;;;;;5054796;28;20039;-79
2023/08/17 02:22:41;;;;;;;1.05;0.90;;;18.80;41.40;;;;;;5054616;28;20029;-79
2023/08/17 02:25:09;;;;;;;0.80;0.70;;;18.70;40.20;;;;;;5054871;28;20017;-80
2023/08/17 02:27:36;;;;;;;0.85;0.85;;;18.70;40.30;;;;;;5054867;28;20021;-79
2023/08/17 02:30:04;;;;;;;1.23;0.70;;;18.70;41.00;;;;;;5052226;28;20025;-79
2023/08/17 02:32:32;;;;;;;1.15;0.80;;;18.60;40.10;;;;;;5054664;28;20502;-79
2023/08/17 02:34:59;;;;;;;0.90;0.65;;;18.60;41.40;;;;;;5055321;28;20032;-80
2023/08/17 02:37:27;;;;;;;1.90;0.80;;;18.60;41.20;;;;;;5055010;28;20044;-80
2023/08/17 02:39:54;;;;;;;4.43;1.00;;;18.60;41.70;;;;;;5054834;28;20435;-80
2023/08/17 02:42:21;;;;;;;1.00;0.80;;;18.60;38.90;;;;;;5053270;28;20111;-79
2023/08/17 02:44:49;;;;;;;2.05;0.90;;;18.70;39.70;;;;;;5054696;28;20021;-80
2023/08/17 02:47:16;;;;;;;0.77;0.68;;;18.60;39.60;;;;;;5065183;28;20025;-80
2023/08/17 02:49:44;;;;;;;1.63;0.70;;;18.70;40.30;;;;;;5058698;28;20360;-81
2023/08/17 02:52:11;;;;;;;1.25;0.85;;;18.70;39.80;;;;;;5068718;28;20020;-78
2023/08/17 02:54:39;;;;;;;1.65;0.80;;;18.70;40.00;;;;;;5052395;28;20027;-79
2023/08/17 02:57:06;;;;;;;2.45;1.00;;;18.70;39.60;;;;;;5063389;28;20127;-79
2023/08/17 02:59:33;;;;;;;2.35;0.95;;;18.70;40.90;;;;;;5060091;28;20490;-79
2023/08/17 03:02:01;;;;;;;3.65;1.10;;;18.70;39.90;;;;;;5063818;28;20389;-79
2023/08/17 03:04:28;;;;;;;3.20;1.33;;;18.70;37.70;;;;;;5055049;28;20509;-81
2023/08/17 03:06:55;;;;;;;5.22;1.08;;;18.70;38.60;;;;;;5054015;28;20029;-79
2023/08/17 03:09:23;;;;;;;5.50;1.02;;;18.90;39.30;;;;;;5053622;28;20025;-80
2023/08/17 03:11:50;;;;;;;1.77;0.85;;;19.00;39.40;;;;;;5069713;28;20426;-80
2023/08/17 03:14:17;;;;;;;2.10;1.00;;;19.00;36.80;;;;;;5055620;28;20017;-80
2023/08/17 03:16:45;;;;;;;2.80;0.80;;;18.90;36.80;;;;;;5066712;28;20040;-80
2023/08/17 03:19:13;;;;;;;1.25;0.90;;;18.90;38.40;;;;;;5064477;28;20124;-81
2023/08/17 03:21:40;;;;;;;1.17;0.80;;;19.00;34.90;;;;;;5059344;28;20033;-80
2023/08/17 03:24:08;;;;;;;2.17;1.08;;;19.00;34.70;;;;;;5057547;28;20032;-80
2023/08/17 03:26:35;;;;;;;1.75;1.10;;;19.00;34.90;;;;;;5054138;28;20516;-80
2023/08/17 03:29:03;;;;;;;4.57;1.20;;;19.00;35.40;;;;;;5053997;28;20348;-80
2023/08/17 03:31:30;;;;;;;1.83;1.00;;;19.10;35.80;;;;;;5053953;28;20021;-81
2023/08/17 03:33:59;;;;;;;1.15;0.90;;;19.20;34.50;;;;;;5053207;28;20025;-80
2023/08/17 03:36:26;;;;;;;1.13;0.90;;;19.20;36.00;;;;;;5053990;28;20094;-81
2023/08/17 03:38:53;;;;;;;2.35;0.85;;;19.20;35.40;;;;;;5053656;28;20463;-80
2023/08/17 03:41:25;;;;;;;2.30;1.30;;;19.10;35.90;;;;;;5053886;28;20024;-80
2023/08/17 03:43:52;;;;;;;3.53;1.02;;;19.10;36.40;;;;;;5053489;28;20483;-79
2023/08/17 03:46:20;;;;;;;2.42;0.85;;;19.10;34.80;;;;;;5053622;28;20021;-78
2023/08/17 03:48:47;;;;;;;1.33;1.00;;;19.00;35.20;;;;;;5052285;28;20079;-80
2023/08/17 03:51:14;;;;;;;1.05;0.90;;;19.10;36.00;;;;;;5053773;28;20100;-78
2023/08/17 03:53:42;;;;;;;0.93;0.80;;;19.20;34.90;;;;;;5053663;28;20029;-83
2023/08/17 03:56:09;;;;;;;1.35;0.90;;;19.30;34.30;;;;;;5053663;28;20052;-83
2023/08/17 03:58:37;;;;;;;2.25;0.70;;;19.40;34.10;;;;;;5053524;28;20391;-79
2023/08/17 04:01:06;;;;;;;0.90;0.80;;;19.40;34.50;;;;;;5052586;28;20028;-79
2023/08/17 04:03:34;;;;;;;2.17;0.98;;;19.50;33.60;;;;;;5050671;28;20063;-80
2023/08/17 04:06:10;;;;;;;4.22;1.00;;;19.60;34.70;;;;;;5053431;28;20033;-80
2023/08/17 04:08:40;;;;;;;1.33;0.80;;;19.70;33.40;;;;;;5053403;28;20105;-80
2023/08/17 04:11:07;;;;;;;2.45;1.00;;;19.60;32.80;;;;;;5053457;28;20029;-81
2023/08/17 04:13:35;;;;;;;0.88;0.77;;;19.70;34.50;;;;;;5053269;28;20053;-78
2023/08/17 04:16:02;;;;;;;0.63;0.63;;;19.70;30.90;;;;;;5053077;28;20033;-86
2023/08/17 04:18:29;;;;;;;0.60;0.60;;;19.70;32.50;;;;;;5053230;28;20037;-86
2023/08/17 04:20:57;;;;;;;3.03;1.00;;;19.70;31.40;;;;;;5052960;28;20029;-79
2023/08/17 04:23:24;;;;;;;3.55;0.82;;;19.70;31.50;;;;;;5052971;28;20047;-80
2023/08/17 04:25:54;;;;;;;1.50;0.95;;;19.70;31.90;;;;;;5053079;28;20028;-81
2023/08/17 04:28:22;;;;;;;2.17;1.23;;;19.70;32.10;;;;;;5053099;28;20071;-81
2023/08/17 04:30:49;;;;;;;2.22;1.23;;;19.70;34.00;;;;;;5052954;28;20567;-80
2023/08/17 04:33:17;;;;;;;3.88;1.40;;;19.70;38.40;;;;;;5053101;28;20029;-79
2023/08/17 04:35:48;;;;;;;4.22;1.20;;;19.80;39.50;;;;;;5053031;28;20115;-79
2023/08/17 04:38:15;;;;;;;4.18;1.58;;;19.80;40.80;;;;;;5052940;28;20471;-78
2023/08/17 04:40:42;;;;;;;3.58;1.30;;;19.90;42.30;;;;;;5052635;28;20033;-83
2023/08/17 04:43:11;;;;;;;3.10;1.80;;;19.90;42.60;;;;;;5052952;28;20036;-82
2023/08/17 04:45:38;;;;;;;2.30;1.20;;;19.90;43.10;;;;;;5052712;28;20245;-84
2023/08/17 04:48:07;;;;;;;3.58;1.02;;;19.90;43.50;;;;;;5052449;28;20043;-78
2023/08/17 04:50:34;;;;;;;2.00;1.27;;;20.00;44.00;;;;;;5052767;28;20021;-83
2023/08/17 04:53:02;;;;;;;3.70;1.10;;;20.00;43.90;;;;;;5052397;28;20424;-81
2023/08/17 04:55:31;;;;;;;2.38;1.08;;;20.00;44.50;;;;;;5052194;28;20082;-83
2023/08/17 04:57:59;;;;;;;1.52;1.05;;;20.00;45.00;;;;;;5052564;28;20028;-80
2023/08/17 05:00:30;;;;;;;3.30;1.30;;;19.90;45.10;;;;;;5052233;28;20032;-78
2023/08/17 05:02:57;;;;;;;5.35;1.10;;;19.90;45.40;;;;;;5052381;28;20029;-79
2023/08/17 05:05:25;;;;;;;2.17;1.10;;;19.90;45.00;;;;;;5054257;28;20167;-79
2023/08/17 05:07:53;;;;;;;3.90;1.40;;;19.80;44.40;;;;;;5052242;28;20025;-79
2023/08/17 05:10:21;;;;;;;3.22;1.25;;;19.70;44.90;;;;;;5052427;28;20025;-80
2023/08/17 05:12:48;;;;;;;2.83;1.30;;;19.70;45.40;;;;;;5052466;28;20046;-84
2023/08/17 05:15:16;;;;;;;1.38;1.15;;;19.60;44.30;;;;;;5052683;28;20471;-80
2023/08/17 05:17:43;;;;;;;2.92;1.20;;;19.60;45.40;;;;;;5052407;28;20037;-80
2023/08/17 05:20:12;;;;;;;2.78;1.00;;;19.60;46.00;;;;;;5052237;28;20037;-80
2023/08/17 05:22:40;;;;;;;1.13;0.90;;;19.60;45.40;;;;;;5052349;28;20021;-80
2023/08/17 05:25:07;;;;;;;1.98;1.30;;;19.60;46.00;;;;;;5052573;28;20078;-79
2023/08/17 05:27:35;;;;;;;0.90;0.90;;;19.50;45.80;;;;;;5052347;28;20020;-79
2023/08/17 05:30:02;;;;;;;1.27;0.98;;;19.40;45.70;;;;;;5052351;28;20087;-80
2023/08/17 05:32:29;;;;;;;2.88;1.08;;;19.30;45.90;;;;;;5052232;28;20021;-79
2023/08/17 05:34:58;;;;;;;5.30;0.98;;;19.30;44.90;;;;;;5052056;28;20079;-79
2023/08/17 05:37:25;;;;;;;2.47;1.08;;;19.30;44.80;;;;;;5050798;28;20043;-80
2023/08/17 05:39:58;;;;;;;3.05;1.00;;;19.30;45.30;;;;;;5051171;28;20021;-79
2023/08/17 05:42:25;;;;;;;2.25;1.00;;;19.30;44.80;;;;;;5052150;28;20021;-81
2023/08/17 05:44:53;;;;;;;0.90;0.90;;;19.30;43.70;;;;;;5051925;28;20028;-79
2023/08/17 05:47:20;;;;;;;2.47;1.05;;;19.30;44.90;;;;;;5051978;28;20021;-80
2023/08/17 05:49:48;;;;;;;5.68;1.10;;;19.20;45.00;;;;;;5051961;28;20021;-79
2023/08/17 05:52:15;;;;;;;1.08;0.90;;;19.20;45.80;;;;;;5052045;28;20092;-80
2023/08/17 05:54:42;;;;;;;1.30;1.17;;;19.20;46.90;;;;;;5051708;28;20040;-79
2023/08/17 05:57:10;;;;;;;0.90;0.80;;;19.10;46.80;;;;;;5054829;28;20029;-81
2023/08/17 05:59:37;;;;;;;2.60;1.42;;;19.00;46.80;;;;;;5055871;28;20025;-79
2023/08/17 06:02:05;;;;;;;3.45;0.90;;;19.00;46.70;;;;;;5055446;28;20386;-79
2023/08/17 06:04:33;;;;;;;0.98;0.80;;;19.00;46.50;;;;;;5055741;28;20013;-78
2023/08/17 06:07:00;;;;;;;1.48;0.90;;;18.90;46.90;;;;;;5055448;28;20024;-78
2023/08/17 06:09:28;;;;;;;2.42;1.08;;;18.90;47.50;;;;;;5055675;28;20021;-79
2023/08/17 06:11:55;;;;;;;2.95;0.90;;;18.80;47.60;;;;;;5055569;28;20036;-81
2023/08/17 06:14:22;;;;;;;2.55;0.90;;;18.80;47.20;;;;;;5055476;28;20035;-78
2023/08/17 06:16:50;;;;;;;1.70;1.00;;;18.70;47.40;;;;;;5055078;28;20032;-80
2023/08/17 06:19:17;;;;;;;1.65;1.00;;;18.70;47.40;;;;;;5055161;28;20048;-80
2023/08/17 06:21:44;;;;;;;1.75;1.00;;;18.50;47.50;;;;;;5055402;28;20126;-82
2023/08/17 06:24:12;;;;;;;1.15;0.80;;;18.50;47.60;;;;;;5055248;28;20448;-80
2023/08/17 06:26:39;;;;;;;0.88;0.82;;;18.40;47.90;;;;;;5055159;28;20364;-78
2023/08/17 06:29:07;;;;;;;1.48;1.00;;;18.30;47.80;;;;;;5055119;28;20020;-79
2023/08/17 06:31:34;;;;;;;1.90;0.95;;;18.30;48.00;;;;;;5054987;28;20476;-78
2023/08/17 06:34:05;;;;;;;1.83;0.90;;;18.30;48.40;;;;;;5055207;28;20409;-79
2023/08/17 06:36:33;;;;;;;1.90;1.15;;;18.20;48.60;;;;;;5054942;28;20040;-80
2023/08/17 06:39:00;;;;;;;2.60;1.08;;;18.20;48.50;;;;;;5054819;28;20036;-84
2023/08/17 06:41:28;;;;;;;1.23;0.98;;;18.10;49.30;;;;;;5054992;28;20029;-81
2023/08/17 06:43:55;;;;;;;1.88;1.00;;;18.00;49.50;;;;;;5054623;28;20088;-82
2023/08/17 06:46:23;;;;;;;3.67;1.33;;;18.00;49.40;;;;;;5054612;28;20037;-80
2023/08/17 06:48:50;;;;;;;1.92;1.60;;;17.90;50.00;;;;;;5054627;28;20022;-82
2023/08/17 06:51:17;;;;;;;3.03;1.45;;;17.90;50.10;;;;;;5054885;28;20052;-87
2023/08/17 06:53:45;;;;;;;2.50;1.20;;;17.80;50.10;;;;;;5054628;28;20017;-80
2023/08/17 06:56:12;;;;;;;2.42;1.30;;;17.80;50.30;;;;;;5054666;28;20032;-81
2023/08/17 06:58:40;;;;;;;2.10;0.98;;;17.80;50.30;;;;;;5054778;28;20368;-81
2023/08/17 07:01:07;;;;;;;2.55;1.10;;;17.70;50.70;;;;;;5054448;28;20166;-80
2023/08/17 07:03:34;;;;;;;2.20;1.30;;;17.70;50.70;;;;;;5054684;28;20025;-80
2023/08/17 07:06:02;;;;;;;1.73;1.38;;;17.70;50.80;;;;;;5054414;28;20033;-81
2023/08/17 07:08:29;;;;;;;1.52;1.00;;;17.60;50.90;;;;;;5053344;28;20151;-80
2023/08/17 07:10:57;;;;;;;2.78;1.20;;;17.50;51.80;;;;;;5054147;28;20025;-79
2023/08/17 07:13:24;;;;;;;1.77;1.10;;;17.50;51.80;;;;;;5054174;28;20036;-81
2023/08/17 07:15:51;;;;;;;1.85;1.00;;;17.40;51.40;;;;;;5054049;28;20463;-80
2023/08/17 07:18:19;;;;;;;1.23;0.93;;;17.40;51.10;;;;;;5052794;28;20421;-80
2023/08/17 07:20:46;;;;;;;1.05;0.95;;;17.30;51.40;;;;;;5054059;28;20021;-80
2023/08/17 07:23:13;;;;;;;3.10;1.48;;;17.20;51.20;;;;;;5054328;28;20025;-79
2023/08/17 07:25:41;;;;;;;1.88;1.13;;;17.20;50.90;;;;;;5052345;28;20086;-80
2023/08/17 07:28:08;;;;;;;1.38;1.00;;;17.20;51.20;;;;;;5051124;28;20449;-79
2023/08/17 07:30:35;;;;;;;2.03;1.10;;;17.10;51.60;;;;;;5050828;28;20379;-81
2023/08/17 07:33:03;;;;;;;1.38;1.10;;;17.10;52.30;;;;;;5052337;28;20506;-80
2023/08/17 07:35:30;;;;;;;1.92;1.20;;;17.10;52.30;;;;;;5052849;28;20176;-82
2023/08/17 07:37:57;;;;;;;2.75;1.27;;;17.10;52.30;;;;;;5053652;28;20107;-79
2023/08/17 07:40:25;;;;;;;2.10;1.13;;;17.00;52.80;;;;;;5053606;28;20024;-83
2023/08/17 07:42:52;;;;;;;2.35;1.10;;;17.00;52.70;;;;;;5052673;28;20041;-84
2023/08/17 07:45:20;;;;;;;2.42;1.20;;;17.00;52.70;;;;;;5053465;28;20029;-82
2023/08/17 07:47:47;;;;;;;4.05;1.58;;;17.00;52.90;;;;;;5053025;28;20453;-79
2023/08/17 07:50:14;;;;;;;1.73;1.25;;;16.90;53.00;;;;;;5051625;28;20044;-77
2023/08/17 07:52:42;;;;;;;2.35;1.20;;;16.90;53.30;;;;;;5051446;28;20055;-78
2023/08/17 07:55:09;;;;;;;3.03;1.42;;;16.90;53.30;;;;;;5051641;28;20071;-81
2023/08/17 07:57:37;;;;;;;2.53;1.33;;;16.90;53.30;;;;;;5051490;28;20040;-86
2023/08/17 08:00:05;;;;;;;2.22;1.40;;;16.90;53.90;;;;;;5051303;28;20387;-81
2023/08/17 08:02:32;;;;;;;3.65;1.80;;;16.90;53.90;;;;;;5052258;28;20120;-79
2023/08/17 08:04:59;;;;;;;5.15;1.30;;;16.80;54.10;;;;;;5053190;28;20037;-80
2023/08/17 08:07:27;;;;;;;4.15;1.20;;;16.70;54.10;;;;;;5053265;28;20367;-87
2023/08/17 08:09:54;;;;;;;2.30;1.15;;;16.80;53.60;;;;;;5052198;28;20017;-87
2023/08/17 08:12:22;;;;;;;2.85;1.52;;;16.80;53.40;;;;;;5059109;28;20021;-88
2023/08/17 08:14:51;;;;;;;3.67;1.00;;;16.80;52.90;;;;;;5051397;28;20072;-87
2023/08/17 08:17:23;;;;;;;2.75;1.40;;;16.80;53.10;;;;;;5062632;28;20429;-90
2023/08/17 08:19:51;;;;;;;2.42;1.13;;;16.70;53.60;;;;;;5068874;28;20045;-88
2023/08/17 08:22:20;;;;;;;1.83;1.10;;;16.70;53.80;;;;;;5051667;28;20029;-87
2023/08/17 08:24:47;;;;;;;1.10;1.00;;;16.70;53.90;;;;;;5053369;28;20013;-85
2023/08/17 08:27:17;;;;;;;2.85;1.17;;;16.70;53.60;;;;;;5052812;28;20021;-88
2023/08/17 08:29:45;;;;;;;2.17;1.42;;;16.70;53.90;;;;;;5052878;28;20546;-87
2023/08/17 08:32:13;;;;;;;2.50;1.15;;;16.70;54.00;;;;;;5051037;28;20025;-88
2023/08/17 08:34:40;;;;;;;4.15;1.50;;;16.70;54.10;;;;;;5053441;28;20016;-87
2023/08/17 08:37:07;;;;;;;2.72;1.27;;;16.60;54.40;;;;;;5053042;28;20032;-86
2023/08/17 08:39:52;;;;;;;3.35;1.30;;;16.60;54.60;;;;;;5053764;28;20099;-86
2023/08/17 08:42:20;;;;;;;2.45;1.73;;;16.60;54.80;;;;;;5051503;28;20613;-88
2023/08/17 08:44:49;;;;;;;3.40;1.38;;;16.60;54.80;;;;;;5053143;28;20100;-85
2023/08/17 08:47:18;;;;;;;2.88;1.90;;;16.60;55.00;;;;;;5053026;28;20021;-86
2023/08/17 08:50:03;;;;;;;3.60;1.40;;;16.60;55.10;;;;;;5053128;28;20025;-86
2023/08/17 08:52:45;;;;;;;3.55;1.60;;;16.60;55.20;;;;;;5049909;28;20029;-87
2023/08/17 08:55:23;;;;;;;3.60;1.50;;;16.60;55.30;;;;;;5052988;28;20104;-87
2023/08/17 08:57:52;;;;;;;3.03;1.35;;;16.60;55.60;;;;;;5052693;28;20540;-86
2023/08/17 09:00:21;;;;;;;2.10;1.45;;;16.60;55.60;;;;;;5053239;28;20493;-87
2023/08/17 09:02:49;;;;;;;3.38;1.70;;;16.60;55.90;;;;;;5051224;28;20106;-88
2023/08/17 09:05:18;;;;;;;3.75;1.55;;;16.60;56.20;;;;;;5053117;28;20040;-88
2023/08/17 09:07:48;;;;;;;2.45;1.38;;;16.60;56.30;;;;;;5053424;28;20127;-87
2023/08/17 09:10:16;;;;;;;2.53;1.35;;;16.60;56.60;;;;;;5053665;28;20035;-87
2023/08/17 09:12:47;;;;;;;2.20;1.10;;;16.60;56.50;;;;;;5051062;28;20021;-80
2023/08/17 09:15:14;;;;;;;2.95;1.35;;;16.60;56.80;;;;;;5052493;28;20078;-81
2023/08/17 09:17:47;;;;;;;2.05;1.20;;;16.60;56.50;;;;;;5052432;28;20029;-86
2023/08/17 09:20:38;;;;;;;2.42;1.52;;;16.60;56.60;;;;;;5052537;28;20441;-80
2023/08/17 09:23:21;;;;;;;2.33;2.13;;;16.60;56.90;;;;;;5051805;28;20479;-81
2023/08/17 09:25:52;;;;;;;1.65;1.30;;;16.60;57.10;;;;;;5052773;28;20052;-87
2023/08/17 09:28:22;;;;;;;3.55;1.50;;;16.60;57.00;;;;;;5052393;28;20021;-80
2023/08/17 09:31:00;;;;;;;2.85;1.50;;;16.70;57.00;;;;;;5051718;28;20013;-84
2023/08/17 09:33:32;;;;;;;2.92;1.30;;;16.60;56.90;;;;;;5056463;28;20036;-83
2023/08/17 09:36:01;;;;;;;1.77;1.40;;;16.60;57.30;;;;;;5056427;28;20025;-79
2023/08/17 09:38:28;;;;;;;4.95;1.48;;;16.60;56.90;;;;;;5056582;28;20037;-82
2023/08/17 09:40:57;;;;;;;3.13;1.33;;;16.60;57.00;;;;;;5054778;28;20039;-79
2023/08/17 09:43:28;;;;;;;2.42;1.40;;;16.70;57.20;;;;;;5056267;28;20029;-78
2023/08/17 09:45:56;;;;;;;2.80;1.30;;;16.60;57.30;;;;;;5056467;28;20017;-80
2023/08/17 09:48:26;;;;;;;2.67;1.33;;;16.60;57.60;;;;;;5056741;28;20497;-81
2023/08/17 09:50:55;;;;;;;3.83;1.63;;;16.60;57.70;;;;;;5054734;28;20025;-82
2023/08/17 09:53:23;;;;;;;2.53;1.50;;;16.60;57.80;;;;;;5056000;28;20074;-80
2023/08/17 09:55:51;;;;;;;3.40;1.95;;;16.60;58.00;;;;;;5056062;28;20095;-80
2023/08/17 09:58:18;;;;;;;1.48;1.13;;;16.60;58.10;;;;;;5056912;28;20040;-79
2023/08/17 10:00:51;;;;;;;3.67;2.25;;;16.60;58.30;;;;;;5054604;28;20482;-79
2023/08/17 10:03:20;;;;;;;2.55;1.63;;;16.60;58.40;;;;;;5035867;28;20033;-79
2023/08/17 10:05:59;;;;;;;3.55;1.88;;;16.60;58.70;;;;;;5035797;28;20022;-80
2023/08/17 10:08:31;;;;;;;2.28;1.50;;;16.60;58.90;;;;;;5035934;28;20040;-80
2023/08/17 10:11:01;;;;;;;2.88;1.80;;;16.60;59.00;;;;;;5034106;28;20040;-80
2023/08/17 10:14:00;;;;;;;4.97;2.05;;;16.60;59.00;;;;;;5035564;28;20116;-80
2023/08/17 10:16:36;;;;;;;2.08;1.58;;;16.60;59.40;;;;;;5024229;28;20054;-80
2023/08/17 10:19:21;;;;;;;1.98;1.50;;;16.60;59.40;;;;;;5037400;28;20045;-80
2023/08/17 10:22:00;;;;;;;2.15;1.60;;;16.60;59.60;;;;;;5044645;28;20502;-80
2023/08/17 10:24:28;;;;;;;2.70;1.50;;;16.60;59.80;;;;;;5055321;28;20032;-84
2023/08/17 10:26:58;;;;;;;4.10;1.48;;;16.60;60.00;;;;;;5055600;28;20037;-88
2023/08/17 10:29:31;;;;;;;1.65;1.25;;;16.60;60.20;;;;;;5055644;28;20025;-84
2023/08/17 10:32:00;;;;;;;2.45;1.35;;;16.60;60.40;;;;;;5052257;28;20025;-79
2023/08/17 10:34:29;;;;;;;2.55;1.77;;;16.60;60.60;;;;;;5055125;28;20025;-84
2023/08/17 10:36:58;;;;;;;2.40;1.60;;;16.70;60.50;;;;;;5055275;28;20094;-81
2023/08/17 10:39:30;;;;;;;4.68;1.65;;;16.60;60.80;;;;;;5055199;28;20029;-79
2023/08/17 10:41:59;;;;;;;3.13;1.77;;;16.70;60.70;;;;;;5053112;28;20251;-80
2023/08/17 10:44:42;;;;;;;2.35;1.30;;;16.70;60.70;;;;;;5054142;28;20032;-80
2023/08/17 10:47:32;;;;;;;2.95;1.55;;;16.60;60.80;;;;;;5056229;28;20079;-77
2023/08/17 10:50:20;;;;;;;3.00;1.70;;;16.70;61.00;;;;;;5054920;28;20031;-80
2023/08/17 10:52:50;;;;;;;4.70;2.08;;;16.70;61.00;;;;;;5053549;28;20100;-79
2023/08/17 10:55:19;;;;;;;3.40;1.70;;;16.70;61.20;;;;;;5054965;28;20048;-84
2023/08/17 10:57:47;;;;;;;3.60;1.75;;;16.60;61.50;;;;;;5053456;28;20032;-82
2023/08/17 11:00:26;;;;;;;2.58;1.50;;;16.70;61.80;;;;;;5054670;28;20418;-83
2023/08/17 11:03:07;;;;;;;3.75;1.40;;;16.70;62.10;;;;;;5052921;28;20112;-81
2023/08/17 11:05:43;;;;;;;2.72;1.40;;;16.70;62.40;;;;;;5056041;28;20017;-79
2023/08/17 11:08:34;;;;;;;6.90;1.98;;;16.70;63.60;;;;;;5055308;28;20513;-81
2023/08/17 11:11:07;;;;;;;4.40;1.63;;;16.70;64.30;;;;;;5052563;28;20044;-78
2023/08/17 11:13:36;;;;;;;2.95;1.70;;;16.70;65.00;;;;;;5054140;28;20037;-79
2023/08/17 11:16:06;;;;;;;6.68;2.28;;;16.70;65.90;;;;;;5054168;28;20036;-80
2023/08/17 11:18:34;;;;;;;4.57;2.00;;;16.70;66.30;;;;;;5054446;28;20131;-76
2023/08/17 11:21:05;;;;;;;3.85;2.30;;;16.70;66.70;;;;;;5053212;28;20044;-81
2023/08/17 11:23:35;;;;;;;3.17;2.08;;;16.60;67.20;;;;;;5054186;28;20095;-80
2023/08/17 11:26:06;;;;;;;5.40;1.90;;;16.50;67.80;;;;;;5054273;28;20024;-79
2023/08/17 11:28:45;;;;;;;5.13;1.98;;;16.50;68.20;;;;;;5056986;28;20099;-84
2023/08/17 11:31:17;;;;;;;3.30;2.33;;;16.50;69.10;;;;;;5053297;28;20124;-80
2023/08/17 11:33:47;;;;;;;4.63;2.70;;;16.40;68.90;;;;;;5054246;28;20021;-80
2023/08/17 11:36:15;;;;;;;8.93;2.97;;;16.40;69.50;;;;;;5054283;28;20029;-86
2023/08/17 11:38:43;;;;;;;6.82;2.85;;;16.40;69.80;;;;;;5054233;28;20017;-82
2023/08/17 11:41:12;;;;;;;4.78;3.25;;;16.30;70.40;;;;;;5054223;28;20025;-86
2023/08/17 11:43:39;;;;;;;7.13;3.50;;;16.20;70.80;;;;;;5054319;28;20446;-83
2023/08/17 11:46:07;;;;;;;5.68;2.67;;;16.20;71.20;;;;;;5053331;28;20525;-85
2023/08/17 11:48:34;;;;;;;3.42;2.30;;;16.20;71.70;;;;;;5054158;28;20028;-86
2023/08/17 11:51:03;;;;;;;3.80;2.40;;;16.20;71.90;;;;;;5054458;28;20067;-84
2023/08/17 11:53:35;;;;;;;4.80;2.53;;;16.20;72.10;;;;;;5053578;28;20013;-86
2023/08/17 11:56:02;;;;;;;4.38;2.50;;;16.20;72.30;;;;;;5053959;28;20051;-86
2023/08/17 11:58:46;;;;;;;4.65;2.72;;;16.20;72.50;;;;;;5053901;28;20033;-85
2023/08/17 12:01:15;;;;;;;4.82;2.90;;;16.10;72.90;;;;;;5052701;28;20036;-86
2023/08/17 12:03:43;;;;;;;4.60;2.88;;;16.10;73.20;;;;;;5053722;28;20040;-86
2023/08/17 12:06:12;;;;;;;5.05;2.70;;;16.00;73.40;;;;;;5054337;28;20036;-87
2023/08/17 12:08:46;;;;;;;4.97;2.40;;;16.00;73.80;;;;;;5053851;28;20041;-86
2023/08/17 12:11:13;;;;;;;5.47;2.70;;;16.00;74.40;;;;;;5052849;28;20021;-84
2023/08/17 12:13:40;;;;;;;6.20;2.63;;;16.00;74.20;;;;;;5052864;28;20020;-84
2023/08/17 12:16:15;;;;;;;5.50;3.03;;;16.00;74.40;;;;;;5054222;28;20044;-85
2023/08/17 12:18:49;;;;;;;3.10;2.35;;;15.90;74.60;;;;;;5052995;28;20049;-83
2023/08/17 12:21:23;;;;;;;5.18;2.63;;;15.90;75.10;;;;;;5053063;28;20025;-85
2023/08/17 12:23:51;;;;;;;6.57;3.03;;;15.90;75.20;;;;;;5051178;28;20091;-85
2023/08/17 12:26:28;;;;;;;6.13;2.63;;;15.90;75.10;;;;;;5052697;28;20017;-82
2023/08/17 12:28:57;;;;;;;4.63;2.90;;;15.80;75.40;;;;;;5050634;28;20548;-88
2023/08/17 12:31:33;;;;;;;4.60;2.65;;;15.70;75.60;;;;;;5069872;28;20029;-85
2023/08/17 12:34:03;;;;;;;6.28;2.55;;;15.70;75.90;;;;;;5054597;28;20131;-87
2023/08/17 12:36:31;;;;;;;6.38;2.60;;;15.60;76.20;;;;;;5052739;28;20055;-88
2023/08/17 12:38:59;;;;;;;3.63;2.65;;;15.50;76.40;;;;;;5053706;28;20349;-87
2023/08/17 12:41:26;;;;;;;5.07;2.70;;;15.40;76.70;;;;;;5054440;28;20088;-90
2023/08/17 12:43:54;;;;;;;4.35;2.60;;;15.30;77.20;;;;;;5054221;28;20147;-88
2023/08/17 12:46:21;;;;;;;4.97;2.63;;;15.20;77.70;;;;;;5069370;28;20032;-89
2023/08/17 12:48:49;;;;;;;5.22;2.50;;;15.20;77.80;;;;;;5052255;28;20036;-88
2023/08/17 12:51:23;;;;;;;3.38;2.78;;;15.10;78.20;;;;;;5052651;28;20108;-89
2023/08/17 12:53:53;;;;;;;5.53;2.72;;;15.00;78.60;;;;;;5057381;28;20037;-88
2023/08/17 12:56:21;;;;;;;5.65;3.00;;;15.00;79.10;;;;;;5067319;28;20049;-88
2023/08/17 12:58:49;;;;;;;4.05;2.85;;;15.10;79.00;;;;;;5083978;28;20033;-88